x

North Michigan- Halfway Between North Manitou And Washington Islands. (45002) Wave Buoy

9:50am - Tue 16th Sep 2014 All times are CDT. -5 hours from GMT.

  • Sig Wave height 1.0ft
  • Swell Direction
  • Peak Period 3s
  • Average Period 3s
  • Wind
    11mph, 13mph gusts
  • Sea Temp 59°f
  • Air Temp 53°f
  • Sea Pressure 1020.3mb
  • North Michigan- Halfway Between North Manitou And Washington Islands.
  • North Michigan- Halfway Between North Manitou And Washington Islands.

More Historic Weather Station data

Upgrade to MSW Pro to gain access to the past 30 days of data for over 8000 Wavebouys and Weather Stations around the globe.

Join Pro

Comparision Forecast

View Surf forecast
   
Tue 09/16 9:50am 1ft 3s 3s 11 13 mph 1020.3mb 59f 53f
8:50am 1ft 3s 3s 11 13 mph 1020.4mb 59f 53f
7:50am 1ft 3s 3s 11 13 mph 1020.6mb 59f 52f
6:50am 1.3ft 3s 3s 11 13 mph 1020.6mb 59f 53f
5:50am 1.3ft 3s 3s 13 16 mph 1020.5mb 59f 54f
4:50am 1ft 3s 3s 11 13 mph 1020.3mb 58f 54f
3:50am 1ft 3s 3s 11 13 mph 1020.3mb 58f 55f
2:50am 1ft 3s 3s 11 13 mph 1020.3mb 58f 55f
1:50am 1ft 3s 3s 9 11 mph 1020.4mb 58f 55f
12:50am 1.3ft 3s 3s 11 13 mph 1020.2mb 58f 55f
Mon 09/15 11:50pm 1ft 3s 3s 13
mph
1019.9mb 58f 56f
10:50pm 1ft 5s 3s 11 13 mph 1020mb 58f 56f
9:50pm 0.7ft  -  3s 9 11 mph 1019.8mb 58f 56f
8:50pm 0.7ft  -  4s 16 18 mph 1019.6mb 58f 56f
7:50pm 1ft 5s 4s 7
mph
1019.6mb 59f 56f
6:50pm 1ft 5s 4s 7
mph
1019.2mb 59f 56f
5:50pm 1ft 5s 4s 9 11 mph 1019mb 60f 56f
4:50pm 0.7ft  -  4s 9 11 mph 1018.8mb 60f 56f
3:50pm 1ft 5s 4s 11
mph
1018.8mb 60f 56f
2:50pm 1ft 5s 4s 9
mph
1019mb 60f 56f
1:50pm 1ft 5s 4s 9
mph
1019.4mb 60f 55f
12:50pm 1.3ft 5s 4s 7
mph
1019.6mb 60f 55f
11:50am 1.6ft 5s 4s 4
mph
1019.7mb 59f 55f
10:50am 1.6ft 5s 4s 2 4 mph 1020mb 58f 55f
9:50am 2ft 5s 4s 4 7 mph 1019.9mb 58f 55f
8:50am 2.5ft 6s 4s 7 9 mph 1020mb 58f 55f
7:50am 2.5ft 6s 4s 9 11 mph 1020mb 58f 55f
6:50am 3ft 6s 4s 9 11 mph 1019.9mb 58f 56f
5:50am 3ft 6s 5s 13 16 mph 1019.3mb 58f 56f
4:50am 3.5ft 6s 5s 11 13 mph 1019.1mb 57f 57f
3:50am 3.5ft 7s 5s 11
mph
1019mb 57f 57f
2:50am 3.5ft 6s 5s 7 9 mph 1019.1mb 57f 57f
1:50am 4ft 7s 5s 7 9 mph 1019.1mb 57f 57f
12:50am 5ft 7s 5s 13 16 mph 1018.6mb 57f 58f
Sun 09/14 11:50pm 5ft 7s 5s 13 18 mph 1018mb 57f 57f
10:50pm 5ft 7s 5s 20 25 mph 1017.8mb 58f 58f
9:50pm 6ft 7s 5s 18 20 mph 1017.9mb 58f 58f
8:50pm 6.5ft 7s 5s 25 31 mph 1017.7mb 59f 59f
7:50pm 7ft 6s 5s 27 34 mph 1017.5mb 59f 59f
6:50pm 7ft 7s 5s 29 36 mph 1017.3mb 58f 58f
5:50pm 6.5ft 6s 5s 29 36 mph 1017.7mb 58f 58f
4:50pm 6ft 6s 5s 31 36 mph 1018mb 58f 57f
3:50pm 6ft 6s 5s 27 31 mph 1018.9mb 58f 57f
2:50pm 6ft 6s 5s 27 34 mph 1019.3mb 58f 56f
1:50pm 5.5ft 5s 5s 25 31 mph 1020.3mb 58f 56f
12:50pm 5ft 6s 5s 25 29 mph 1021.1mb 58f 56f
11:50am 4.5ft 5s 5s 27 31 mph 1021.5mb 59f 56f
10:50am 4.5ft 5s 4s 22 29 mph 1022.3mb 59f 56f
9:50am 3.5ft 5s 4s 22 27 mph 1022.8mb 59f 56f
8:50am 3.5ft 5s 4s 25 27 mph 1023mb 59f 56f
7:50am 3ft 4s 4s 22 27 mph 1023.6mb 59f 56f
6:50am 2.5ft 4s 4s 20 25 mph 1023.7mb 59f 56f
5:50am 2.5ft 4s 3s 20 25 mph 1023.8mb 59f 55f
4:50am 2ft 4s 3s 18 20 mph 1024.4mb 59f 55f
3:50am 2ft 3s 3s 18 22 mph 1024.7mb 60f 55f
2:50am 1.6ft 3s 3s 18 22 mph 1025.1mb 60f 55f
1:50am 1ft 3s 3s 16 18 mph 1025.7mb 60f 54f
12:50am 1ft 3s 3s 13 16 mph 1025.9mb 60f 54f
Sat 09/13 11:50pm 1ft 3s 3s 9 11 mph 1026.1mb 59f 54f
10:50pm 0.7ft  -  3s 11 13 mph 1026.3mb 59f 53f
9:50pm 1ft 3s 3s 11 16 mph 1026.1mb 59f 52f
8:50pm 0.7ft  -  2s 11 13 mph 1026.3mb 59f 52f
7:50pm 0.3ft  -  3s 9 11 mph 1026mb 59f 51f
6:50pm 0.3ft  -  3s 9 11 mph 1026.1mb 59f 51f
5:50pm 0.3ft  -  3s 7 11 mph 1026.1mb 60f 51f
3:50pm 1ft 4s 3s 7 11 mph 1026.3mb 60f 50f
2:50pm 1.3ft 4s 3s 4 7 mph 1026.4mb 60f 49f
1:50pm 1.3ft 4s 3s 7 9 mph 1026.7mb 60f 49f
12:50pm 1.6ft 4s 4s 9 11 mph 1026.9mb 60f 48f
11:50am 2ft 4s 4s 11 16 mph 1026.6mb 59f 48f
10:50am 2.5ft 5s 4s 13 16 mph 1026.7mb 59f 48f
9:50am 2.5ft 5s 4s 13 16 mph 1026.3mb 59f 47f
8:50am 2.5ft 5s 4s 16 20 mph 1025.8mb 59f 47f
7:50am 2.5ft 4s 4s 18 22 mph 1025.4mb 59f 47f
6:50am 2.5ft 4s 4s 20 25 mph 1025.1mb 59f 47f
5:50am 2.5ft 4s 3s 18 22 mph 1024.4mb 59f 48f
4:50am 2ft 3s 3s 18 22 mph 1024mb 59f 49f
3:50am 1.6ft 3s 3s 13 18 mph 1024mb 59f 49f
2:50am 1ft 3s 3s 13 16 mph 1024.2mb 59f 47f
1:50am 1ft 3s 3s 11 16 mph 1024.5mb 59f 48f
12:50am 1ft 3s 3s 9 11 mph 1024.8mb 59f 48f
Fri 09/12 11:50pm 1.3ft 3s 3s 7 11 mph 1025.1mb 59f 48f
10:50pm 1ft 3s 3s 9 13 mph 1025.5mb 59f 48f
9:50pm 1ft 3s 3s 9 16 mph 1025.5mb 59f 48f
8:50pm 1ft 3s 3s 9 13 mph 1025.7mb 59f 50f
7:50pm 1.3ft 3s 3s 9 13 mph 1025.7mb 59f 50f
6:50pm 1.3ft 4s 3s 11 13 mph 1026.3mb 59f 50f
5:50pm 1.3ft 3s 3s 9 13 mph 1026.6mb 59f 51f
4:50pm 1.3ft 3s 3s 11 16 mph 1026.5mb 59f 51f